sensor_id;sensor_type;location;lat;lon;timestamp;temperature;humidity
33988;DHT22;37428;53.580;-1.666;2024-01-06T00:02:35;5.10;99.90
33988;DHT22;37428;53.580;-1.666;2024-01-06T00:05:37;5.20;99.90
33988;DHT22;37428;53.580;-1.666;2024-01-06T00:08:41;5.20;99.90
33988;DHT22;37428;53.580;-1.666;2024-01-06T00:11:43;5.20;99.90
33988;DHT22;37428;53.580;-1.666;2024-01-06T00:14:46;5.20;99.90
33988;DHT22;37428;53.580;-1.666;2024-01-06T00:17:49;5.20;99.90
33988;DHT22;37428;53.580;-1.666;2024-01-06T00:20:51;5.20;99.90
33988;DHT22;37428;53.580;-1.666;2024-01-06T00:23:55;5.20;99.90
33988;DHT22;37428;53.580;-1.666;2024-01-06T00:26:58;5.20;99.90
33988;DHT22;37428;53.580;-1.666;2024-01-06T00:30:00;5.20;99.90
33988;DHT22;37428;53.580;-1.666;2024-01-06T00:33:02;5.20;99.90
33988;DHT22;37428;53.580;-1.666;2024-01-06T00:36:07;5.20;99.90
33988;DHT22;37428;53.580;-1.666;2024-01-06T00:39:11;5.30;99.90
33988;DHT22;37428;53.580;-1.666;2024-01-06T00:42:13;5.30;99.90
33988;DHT22;37428;53.580;-1.666;2024-01-06T00:45:15;5.30;99.90
33988;DHT22;37428;53.580;-1.666;2024-01-06T00:48:18;5.30;99.90
33988;DHT22;37428;53.580;-1.666;2024-01-06T00:51:21;5.30;99.90
33988;DHT22;37428;53.580;-1.666;2024-01-06T00:54:25;5.30;99.90
33988;DHT22;37428;53.580;-1.666;2024-01-06T00:57:27;5.30;99.90
33988;DHT22;37428;53.580;-1.666;2024-01-06T01:00:29;5.30;99.90
33988;DHT22;37428;53.580;-1.666;2024-01-06T01:03:31;5.30;99.90
33988;DHT22;37428;53.580;-1.666;2024-01-06T01:06:34;5.30;99.90
33988;DHT22;37428;53.580;-1.666;2024-01-06T01:09:40;5.30;99.90
33988;DHT22;37428;53.580;-1.666;2024-01-06T01:12:42;5.20;99.90
33988;DHT22;37428;53.580;-1.666;2024-01-06T01:15:44;5.20;99.90
33988;DHT22;37428;53.580;-1.666;2024-01-06T01:18:46;5.20;99.90
33988;DHT22;37428;53.580;-1.666;2024-01-06T01:21:48;5.20;99.90
33988;DHT22;37428;53.580;-1.666;2024-01-06T01:24:55;5.20;99.90
33988;DHT22;37428;53.580;-1.666;2024-01-06T01:27:58;5.20;99.90
33988;DHT22;37428;53.580;-1.666;2024-01-06T01:31:00;5.30;99.90
33988;DHT22;37428;53.580;-1.666;2024-01-06T01:34:02;5.30;99.90
33988;DHT22;37428;53.580;-1.666;2024-01-06T01:37:04;5.30;99.90
33988;DHT22;37428;53.580;-1.666;2024-01-06T01:40:09;5.30;99.90
33988;DHT22;37428;53.580;-1.666;2024-01-06T01:43:16;5.20;99.90
33988;DHT22;37428;53.580;-1.666;2024-01-06T01:46:19;5.30;99.90
33988;DHT22;37428;53.580;-1.666;2024-01-06T01:49:21;5.30;99.90
33988;DHT22;37428;53.580;-1.666;2024-01-06T01:52:23;5.20;99.80
33988;DHT22;37428;53.580;-1.666;2024-01-06T01:55:28;5.20;99.10
33988;DHT22;37428;53.580;-1.666;2024-01-06T01:58:30;5.20;98.90
33988;DHT22;37428;53.580;-1.666;2024-01-06T02:01:33;5.20;98.80
33988;DHT22;37428;53.580;-1.666;2024-01-06T02:04:36;5.20;98.30
33988;DHT22;37428;53.580;-1.666;2024-01-06T02:07:38;5.20;98.00
33988;DHT22;37428;53.580;-1.666;2024-01-06T02:10:42;5.20;98.00
33988;DHT22;37428;53.580;-1.666;2024-01-06T02:13:45;5.30;98.20
33988;DHT22;37428;53.580;-1.666;2024-01-06T02:16:47;5.30;97.40
33988;DHT22;37428;53.580;-1.666;2024-01-06T02:19:49;5.30;98.10
33988;DHT22;37428;53.580;-1.666;2024-01-06T02:22:53;5.30;96.80
33988;DHT22;37428;53.580;-1.666;2024-01-06T02:25:57;5.30;97.10
33988;DHT22;37428;53.580;-1.666;2024-01-06T02:28:59;5.30;97.40
33988;DHT22;37428;53.580;-1.666;2024-01-06T02:32:02;5.30;96.40
33988;DHT22;37428;53.580;-1.666;2024-01-06T02:35:04;5.20;95.60
33988;DHT22;37428;53.580;-1.666;2024-01-06T02:38:08;5.30;95.70
33988;DHT22;37428;53.580;-1.666;2024-01-06T02:41:10;5.20;95.60
33988;DHT22;37428;53.580;-1.666;2024-01-06T02:44:13;5.20;96.50
33988;DHT22;37428;53.580;-1.666;2024-01-06T02:47:15;5.30;96.90
33988;DHT22;37428;53.580;-1.666;2024-01-06T02:50:17;5.30;96.10
33988;DHT22;37428;53.580;-1.666;2024-01-06T02:53:21;5.20;96.00
33988;DHT22;37428;53.580;-1.666;2024-01-06T02:56:23;5.20;95.90
33988;DHT22;37428;53.580;-1.666;2024-01-06T02:59:26;5.10;95.40
33988;DHT22;37428;53.580;-1.666;2024-01-06T03:02:28;5.00;95.80
33988;DHT22;37428;53.580;-1.666;2024-01-06T03:05:30;5.00;96.50
33988;DHT22;37428;53.580;-1.666;2024-01-06T03:08:34;4.90;96.40
33988;DHT22;37428;53.580;-1.666;2024-01-06T03:11:36;4.80;96.60
33988;DHT22;37428;53.580;-1.666;2024-01-06T03:14:38;4.80;97.60
33988;DHT22;37428;53.580;-1.666;2024-01-06T03:17:41;4.80;97.20
33988;DHT22;37428;53.580;-1.666;2024-01-06T03:20:43;4.80;97.30
33988;DHT22;37428;53.580;-1.666;2024-01-06T03:23:48;4.80;97.30
33988;DHT22;37428;53.580;-1.666;2024-01-06T03:26:50;4.70;97.80
33988;DHT22;37428;53.580;-1.666;2024-01-06T03:29:52;4.80;98.10
33988;DHT22;37428;53.580;-1.666;2024-01-06T03:32:55;4.70;97.80
33988;DHT22;37428;53.580;-1.666;2024-01-06T03:35:57;4.70;98.10
33988;DHT22;37428;53.580;-1.666;2024-01-06T03:39:01;4.70;98.40
33988;DHT22;37428;53.580;-1.666;2024-01-06T03:42:03;4.70;98.00
33988;DHT22;37428;53.580;-1.666;2024-01-06T03:45:05;4.60;97.90
33988;DHT22;37428;53.580;-1.666;2024-01-06T03:48:08;4.50;97.90
33988;DHT22;37428;53.580;-1.666;2024-01-06T03:51:12;4.40;97.90
33988;DHT22;37428;53.580;-1.666;2024-01-06T03:54:15;4.40;98.00
33988;DHT22;37428;53.580;-1.666;2024-01-06T03:57:17;4.30;98.20
33988;DHT22;37428;53.580;-1.666;2024-01-06T04:00:20;4.30;98.30
33988;DHT22;37428;53.580;-1.666;2024-01-06T04:03:22;4.20;98.40
33988;DHT22;37428;53.580;-1.666;2024-01-06T04:06:24;4.20;98.50
33988;DHT22;37428;53.580;-1.666;2024-01-06T04:09:28;4.10;98.60
33988;DHT22;37428;53.580;-1.666;2024-01-06T04:12:30;4.10;98.90
33988;DHT22;37428;53.580;-1.666;2024-01-06T04:15:32;4.00;98.80
33988;DHT22;37428;53.580;-1.666;2024-01-06T04:18:34;4.00;99.10
33988;DHT22;37428;53.580;-1.666;2024-01-06T04:21:37;4.00;99.30
33988;DHT22;37428;53.580;-1.666;2024-01-06T04:24:40;3.90;99.30
33988;DHT22;37428;53.580;-1.666;2024-01-06T04:27:43;3.90;99.20
33988;DHT22;37428;53.580;-1.666;2024-01-06T04:30:47;3.90;99.10
33988;DHT22;37428;53.580;-1.666;2024-01-06T04:33:49;3.80;98.80
33988;DHT22;37428;53.580;-1.666;2024-01-06T04:36:51;3.80;98.60
33988;DHT22;37428;53.580;-1.666;2024-01-06T04:39:55;3.80;98.70
33988;DHT22;37428;53.580;-1.666;2024-01-06T04:42:57;3.70;98.80
33988;DHT22;37428;53.580;-1.666;2024-01-06T04:46:00;3.60;99.10
33988;DHT22;37428;53.580;-1.666;2024-01-06T04:49:03;3.60;99.00
33988;DHT22;37428;53.580;-1.666;2024-01-06T04:52:05;3.50;98.90
33988;DHT22;37428;53.580;-1.666;2024-01-06T04:55:09;3.40;99.10
33988;DHT22;37428;53.580;-1.666;2024-01-06T04:58:12;3.30;98.60
33988;DHT22;37428;53.580;-1.666;2024-01-06T05:01:14;3.30;99.70
33988;DHT22;37428;53.580;-1.666;2024-01-06T05:04:21;3.20;99.30
33988;DHT22;37428;53.580;-1.666;2024-01-06T05:07:23;3.20;99.90
33988;DHT22;37428;53.580;-1.666;2024-01-06T05:10:27;3.10;99.70
33988;DHT22;37428;53.580;-1.666;2024-01-06T05:13:29;3.10;99.40
33988;DHT22;37428;53.580;-1.666;2024-01-06T05:16:31;3.10;99.10
33988;DHT22;37428;53.580;-1.666;2024-01-06T05:19:33;3.10;99.00
33988;DHT22;37428;53.580;-1.666;2024-01-06T05:22:36;3.00;99.10
33988;DHT22;37428;53.580;-1.666;2024-01-06T05:25:39;3.00;98.70
33988;DHT22;37428;53.580;-1.666;2024-01-06T05:28:42;3.00;98.70
33988;DHT22;37428;53.580;-1.666;2024-01-06T05:31:44;2.90;99.60
33988;DHT22;37428;53.580;-1.666;2024-01-06T05:34:49;2.80;99.30
33988;DHT22;37428;53.580;-1.666;2024-01-06T05:37:51;2.80;99.70
33988;DHT22;37428;53.580;-1.666;2024-01-06T05:40:56;2.80;99.90
33988;DHT22;37428;53.580;-1.666;2024-01-06T05:43:58;2.80;99.90
33988;DHT22;37428;53.580;-1.666;2024-01-06T05:47:00;2.70;99.60
33988;DHT22;37428;53.580;-1.666;2024-01-06T05:50:02;2.70;99.90
33988;DHT22;37428;53.580;-1.666;2024-01-06T05:53:05;2.70;99.90
33988;DHT22;37428;53.580;-1.666;2024-01-06T05:56:08;2.70;99.90
33988;DHT22;37428;53.580;-1.666;2024-01-06T05:59:11;2.70;99.90
33988;DHT22;37428;53.580;-1.666;2024-01-06T06:02:13;2.60;99.90
33988;DHT22;37428;53.580;-1.666;2024-01-06T06:05:15;2.60;99.90
33988;DHT22;37428;53.580;-1.666;2024-01-06T06:08:17;2.60;99.90
33988;DHT22;37428;53.580;-1.666;2024-01-06T06:11:21;2.60;99.90
33988;DHT22;37428;53.580;-1.666;2024-01-06T06:14:23;2.60;99.90
33988;DHT22;37428;53.580;-1.666;2024-01-06T06:17:26;2.60;99.90
33988;DHT22;37428;53.580;-1.666;2024-01-06T06:20:28;2.60;99.90
33988;DHT22;37428;53.580;-1.666;2024-01-06T06:23:31;2.60;99.90
33988;DHT22;37428;53.580;-1.666;2024-01-06T06:26:34;2.60;99.90
33988;DHT22;37428;53.580;-1.666;2024-01-06T06:29:37;2.60;99.90
33988;DHT22;37428;53.580;-1.666;2024-01-06T06:32:39;2.60;99.90
33988;DHT22;37428;53.580;-1.666;2024-01-06T06:35:42;2.60;99.90
33988;DHT22;37428;53.580;-1.666;2024-01-06T06:38:44;2.60;99.90
33988;DHT22;37428;53.580;-1.666;2024-01-06T06:41:48;2.60;99.90
33988;DHT22;37428;53.580;-1.666;2024-01-06T06:44:50;2.60;99.90
33988;DHT22;37428;53.580;-1.666;2024-01-06T06:47:52;2.60;99.90
33988;DHT22;37428;53.580;-1.666;2024-01-06T06:50:55;2.60;99.80
33988;DHT22;37428;53.580;-1.666;2024-01-06T06:53:57;2.60;99.80
33988;DHT22;37428;53.580;-1.666;2024-01-06T06:57:01;2.60;99.90
33988;DHT22;37428;53.580;-1.666;2024-01-06T07:00:04;2.50;99.90
33988;DHT22;37428;53.580;-1.666;2024-01-06T07:03:08;2.50;99.90
33988;DHT22;37428;53.580;-1.666;2024-01-06T07:06:12;2.40;99.90
33988;DHT22;37428;53.580;-1.666;2024-01-06T07:09:21;2.40;99.90
33988;DHT22;37428;53.580;-1.666;2024-01-06T07:12:26;2.40;99.90
33988;DHT22;37428;53.580;-1.666;2024-01-06T07:15:29;2.40;99.90
33988;DHT22;37428;53.580;-1.666;2024-01-06T07:18:31;2.40;99.90
33988;DHT22;37428;53.580;-1.666;2024-01-06T07:21:33;2.40;99.90
33988;DHT22;37428;53.580;-1.666;2024-01-06T07:24:36;2.40;99.90
33988;DHT22;37428;53.580;-1.666;2024-01-06T07:27:39;2.40;99.90
33988;DHT22;37428;53.580;-1.666;2024-01-06T07:30:42;2.40;99.90
33988;DHT22;37428;53.580;-1.666;2024-01-06T07:33:44;2.40;99.90
33988;DHT22;37428;53.580;-1.666;2024-01-06T07:36:46;2.30;99.90
33988;DHT22;37428;53.580;-1.666;2024-01-06T07:39:48;2.30;99.90
33988;DHT22;37428;53.580;-1.666;2024-01-06T07:42:52;2.30;99.90
33988;DHT22;37428;53.580;-1.666;2024-01-06T07:45:54;2.30;99.90
33988;DHT22;37428;53.580;-1.666;2024-01-06T07:48:57;2.30;99.90
33988;DHT22;37428;53.580;-1.666;2024-01-06T07:51:59;2.30;99.90
33988;DHT22;37428;53.580;-1.666;2024-01-06T07:55:01;2.30;99.90
33988;DHT22;37428;53.580;-1.666;2024-01-06T07:58:05;2.30;99.90
33988;DHT22;37428;53.580;-1.666;2024-01-06T08:01:07;2.30;99.90
33988;DHT22;37428;53.580;-1.666;2024-01-06T08:04:10;2.30;99.90
33988;DHT22;37428;53.580;-1.666;2024-01-06T08:07:12;2.30;99.90
33988;DHT22;37428;53.580;-1.666;2024-01-06T08:10:15;2.30;99.90
33988;DHT22;37428;53.580;-1.666;2024-01-06T08:13:19;2.20;99.90
33988;DHT22;37428;53.580;-1.666;2024-01-06T08:16:21;2.20;99.90
33988;DHT22;37428;53.580;-1.666;2024-01-06T08:19:24;2.20;99.90
33988;DHT22;37428;53.580;-1.666;2024-01-06T08:22:26;2.10;99.90
33988;DHT22;37428;53.580;-1.666;2024-01-06T08:25:29;2.20;99.90
33988;DHT22;37428;53.580;-1.666;2024-01-06T08:28:32;2.10;99.90
33988;DHT22;37428;53.580;-1.666;2024-01-06T08:31:35;2.10;99.90
33988;DHT22;37428;53.580;-1.666;2024-01-06T08:34:37;2.10;99.90
33988;DHT22;37428;53.580;-1.666;2024-01-06T08:37:39;2.10;99.90
33988;DHT22;37428;53.580;-1.666;2024-01-06T08:40:41;2.10;99.90
33988;DHT22;37428;53.580;-1.666;2024-01-06T08:43:47;2.20;99.90
33988;DHT22;37428;53.580;-1.666;2024-01-06T08:46:49;2.20;99.90
33988;DHT22;37428;53.580;-1.666;2024-01-06T08:49:52;2.20;99.90
33988;DHT22;37428;53.580;-1.666;2024-01-06T08:52:54;2.20;99.90
33988;DHT22;37428;53.580;-1.666;2024-01-06T08:55:56;2.20;99.90
33988;DHT22;37428;53.580;-1.666;2024-01-06T08:59:01;2.20;99.80
33988;DHT22;37428;53.580;-1.666;2024-01-06T09:02:04;2.20;99.70
33988;DHT22;37428;53.580;-1.666;2024-01-06T09:05:07;2.10;99.90
33988;DHT22;37428;53.580;-1.666;2024-01-06T09:08:09;2.20;99.90
33988;DHT22;37428;53.580;-1.666;2024-01-06T09:11:11;2.20;99.90
33988;DHT22;37428;53.580;-1.666;2024-01-06T09:14:18;2.20;99.90
33988;DHT22;37428;53.580;-1.666;2024-01-06T09:17:20;2.20;99.90
33988;DHT22;37428;53.580;-1.666;2024-01-06T09:20:23;2.30;99.90
33988;DHT22;37428;53.580;-1.666;2024-01-06T09:23:25;2.30;99.90
33988;DHT22;37428;53.580;-1.666;2024-01-06T09:26:27;2.40;99.90
33988;DHT22;37428;53.580;-1.666;2024-01-06T09:29:31;2.40;99.90
33988;DHT22;37428;53.580;-1.666;2024-01-06T09:32:33;2.50;99.90
33988;DHT22;37428;53.580;-1.666;2024-01-06T09:35:36;2.50;99.90
33988;DHT22;37428;53.580;-1.666;2024-01-06T09:38:38;2.50;99.90
33988;DHT22;37428;53.580;-1.666;2024-01-06T09:41:40;2.50;99.90
33988;DHT22;37428;53.580;-1.666;2024-01-06T09:44:44;2.60;99.90
33988;DHT22;37428;53.580;-1.666;2024-01-06T09:47:49;2.60;99.90
33988;DHT22;37428;53.580;-1.666;2024-01-06T09:50:56;2.60;99.90
33988;DHT22;37428;53.580;-1.666;2024-01-06T09:54:00;2.70;99.90
33988;DHT22;37428;53.580;-1.666;2024-01-06T09:57:04;2.80;99.90
33988;DHT22;37428;53.580;-1.666;2024-01-06T10:00:10;2.80;99.90
33988;DHT22;37428;53.580;-1.666;2024-01-06T10:03:12;2.90;99.90
33988;DHT22;37428;53.580;-1.666;2024-01-06T10:06:15;2.90;99.90
33988;DHT22;37428;53.580;-1.666;2024-01-06T10:09:26;2.90;99.90
33988;DHT22;37428;53.580;-1.666;2024-01-06T10:12:29;3.10;99.90
33988;DHT22;37428;53.580;-1.666;2024-01-06T10:15:33;3.30;99.90
33988;DHT22;37428;53.580;-1.666;2024-01-06T10:18:37;3.60;98.80
33988;DHT22;37428;53.580;-1.666;2024-01-06T10:21:39;3.90;97.70
33988;DHT22;37428;53.580;-1.666;2024-01-06T10:24:41;4.00;95.80
33988;DHT22;37428;53.580;-1.666;2024-01-06T10:27:44;4.10;95.60
33988;DHT22;37428;53.580;-1.666;2024-01-06T10:30:48;4.00;95.40
33988;DHT22;37428;53.580;-1.666;2024-01-06T10:33:50;4.10;95.60
33988;DHT22;37428;53.580;-1.666;2024-01-06T10:36:53;4.20;95.00
33988;DHT22;37428;53.580;-1.666;2024-01-06T10:40:09;4.40;94.80
33988;DHT22;37428;53.580;-1.666;2024-01-06T10:43:11;4.60;93.70
33988;DHT22;37428;53.580;-1.666;2024-01-06T10:46:16;4.70;93.70
33988;DHT22;37428;53.580;-1.666;2024-01-06T10:49:20;4.90;92.70
33988;DHT22;37428;53.580;-1.666;2024-01-06T10:52:25;5.10;91.80
33988;DHT22;37428;53.580;-1.666;2024-01-06T10:55:28;5.20;91.70
33988;DHT22;37428;53.580;-1.666;2024-01-06T10:58:32;5.40;90.70
33988;DHT22;37428;53.580;-1.666;2024-01-06T11:01:39;5.50;90.00
33988;DHT22;37428;53.580;-1.666;2024-01-06T11:04:43;5.60;90.40
33988;DHT22;37428;53.580;-1.666;2024-01-06T11:07:46;5.70;89.60
33988;DHT22;37428;53.580;-1.666;2024-01-06T11:10:52;5.70;89.30
33988;DHT22;37428;53.580;-1.666;2024-01-06T11:14:17;5.60;89.40
33988;DHT22;37428;53.580;-1.666;2024-01-06T11:17:51;5.60;89.50
33988;DHT22;37428;53.580;-1.666;2024-01-06T11:21:15;5.40;89.80
33988;DHT22;37428;53.580;-1.666;2024-01-06T11:24:23;5.40;90.00
33988;DHT22;37428;53.580;-1.666;2024-01-06T11:27:27;5.30;90.40
33988;DHT22;37428;53.580;-1.666;2024-01-06T11:30:30;5.00;90.90
33988;DHT22;37428;53.580;-1.666;2024-01-06T11:33:41;5.00;92.60
33988;DHT22;37428;53.580;-1.666;2024-01-06T11:36:44;5.00;92.10
33988;DHT22;37428;53.580;-1.666;2024-01-06T11:39:47;5.00;92.90
33988;DHT22;37428;53.580;-1.666;2024-01-06T11:42:57;4.90;92.50
33988;DHT22;37428;53.580;-1.666;2024-01-06T11:46:00;4.90;93.20
33988;DHT22;37428;53.580;-1.666;2024-01-06T11:49:05;4.80;93.80
33988;DHT22;37428;53.580;-1.666;2024-01-06T11:52:08;4.90;94.00
33988;DHT22;37428;53.580;-1.666;2024-01-06T11:55:10;4.80;93.70
33988;DHT22;37428;53.580;-1.666;2024-01-06T11:58:13;4.80;94.20
33988;DHT22;37428;53.580;-1.666;2024-01-06T12:01:15;4.80;95.30
33988;DHT22;37428;53.580;-1.666;2024-01-06T12:04:19;4.80;94.60
33988;DHT22;37428;53.580;-1.666;2024-01-06T12:07:23;4.70;94.50
33988;DHT22;37428;53.580;-1.666;2024-01-06T12:10:26;4.80;94.90
33988;DHT22;37428;53.580;-1.666;2024-01-06T12:13:28;4.80;94.50
33988;DHT22;37428;53.580;-1.666;2024-01-06T12:16:31;4.80;95.20
33988;DHT22;37428;53.580;-1.666;2024-01-06T12:19:35;4.80;94.80
33988;DHT22;37428;53.580;-1.666;2024-01-06T12:22:38;4.90;94.90
33988;DHT22;37428;53.580;-1.666;2024-01-06T12:25:42;4.80;94.40
33988;DHT22;37428;53.580;-1.666;2024-01-06T12:28:49;4.80;94.70
33988;DHT22;37428;53.580;-1.666;2024-01-06T12:31:51;4.90;94.40
33988;DHT22;37428;53.580;-1.666;2024-01-06T12:34:55;4.90;94.60
33988;DHT22;37428;53.580;-1.666;2024-01-06T12:37:58;4.90;94.70
33988;DHT22;37428;53.580;-1.666;2024-01-06T12:41:00;4.90;94.20
33988;DHT22;37428;53.580;-1.666;2024-01-06T12:44:03;5.00;94.50
33988;DHT22;37428;53.580;-1.666;2024-01-06T12:47:06;5.00;94.20
33988;DHT22;37428;53.580;-1.666;2024-01-06T12:50:10;5.20;94.60
33988;DHT22;37428;53.580;-1.666;2024-01-06T12:53:12;5.30;94.30
33988;DHT22;37428;53.580;-1.666;2024-01-06T12:56:15;5.40;94.20
33988;DHT22;37428;53.580;-1.666;2024-01-06T12:59:18;5.60;93.40
33988;DHT22;37428;53.580;-1.666;2024-01-06T13:02:20;5.70;93.50
33988;DHT22;37428;53.580;-1.666;2024-01-06T13:05:24;5.80;92.10
33988;DHT22;37428;53.580;-1.666;2024-01-06T13:08:27;5.80;92.40
33988;DHT22;37428;53.580;-1.666;2024-01-06T13:11:29;5.90;91.60
33988;DHT22;37428;53.580;-1.666;2024-01-06T13:14:32;6.00;92.10
33988;DHT22;37428;53.580;-1.666;2024-01-06T13:17:34;6.00;91.50
33988;DHT22;37428;53.580;-1.666;2024-01-06T13:20:38;6.00;91.40
33988;DHT22;37428;53.580;-1.666;2024-01-06T13:23:42;6.10;91.50
33988;DHT22;37428;53.580;-1.666;2024-01-06T13:26:44;6.10;90.90
33988;DHT22;37428;53.580;-1.666;2024-01-06T13:29:47;6.10;90.20
33988;DHT22;37428;53.580;-1.666;2024-01-06T13:32:49;6.20;90.60
33988;DHT22;37428;53.580;-1.666;2024-01-06T13:35:54;6.20;90.20
33988;DHT22;37428;53.580;-1.666;2024-01-06T13:38:56;6.40;89.90
33988;DHT22;37428;53.580;-1.666;2024-01-06T13:42:00;6.60;89.20
33988;DHT22;37428;53.580;-1.666;2024-01-06T13:45:04;6.80;88.70
33988;DHT22;37428;53.580;-1.666;2024-01-06T13:48:07;6.80;88.20
33988;DHT22;37428;53.580;-1.666;2024-01-06T13:51:11;6.80;88.30
33988;DHT22;37428;53.580;-1.666;2024-01-06T13:54:13;6.60;87.60
33988;DHT22;37428;53.580;-1.666;2024-01-06T13:57:16;6.40;88.40
33988;DHT22;37428;53.580;-1.666;2024-01-06T14:00:18;6.40;89.10
33988;DHT22;37428;53.580;-1.666;2024-01-06T14:03:21;6.40;89.90
33988;DHT22;37428;53.580;-1.666;2024-01-06T14:06:26;6.40;89.10
33988;DHT22;37428;53.580;-1.666;2024-01-06T14:09:30;6.50;89.50
33988;DHT22;37428;53.580;-1.666;2024-01-06T14:12:33;6.60;87.70
33988;DHT22;37428;53.580;-1.666;2024-01-06T14:15:35;6.80;88.20
33988;DHT22;37428;53.580;-1.666;2024-01-06T14:18:37;6.70;87.20
33988;DHT22;37428;53.580;-1.666;2024-01-06T14:21:41;6.60;87.30
33988;DHT22;37428;53.580;-1.666;2024-01-06T14:24:43;6.40;87.90
33988;DHT22;37428;53.580;-1.666;2024-01-06T14:27:46;6.20;88.20
33988;DHT22;37428;53.580;-1.666;2024-01-06T14:30:48;6.10;89.20
33988;DHT22;37428;53.580;-1.666;2024-01-06T14:33:50;6.10;89.60
33988;DHT22;37428;53.580;-1.666;2024-01-06T14:36:54;6.00;90.00
33988;DHT22;37428;53.580;-1.666;2024-01-06T14:39:56;6.00;90.40
33988;DHT22;37428;53.580;-1.666;2024-01-06T14:42:59;5.90;90.50
33988;DHT22;37428;53.580;-1.666;2024-01-06T14:46:03;5.90;90.60
33988;DHT22;37428;53.580;-1.666;2024-01-06T14:49:06;5.90;90.40
33988;DHT22;37428;53.580;-1.666;2024-01-06T14:52:10;5.90;90.50
33988;DHT22;37428;53.580;-1.666;2024-01-06T14:55:12;5.90;91.00
33988;DHT22;37428;53.580;-1.666;2024-01-06T14:58:14;5.90;91.30
33988;DHT22;37428;53.580;-1.666;2024-01-06T15:01:16;5.90;90.70
33988;DHT22;37428;53.580;-1.666;2024-01-06T15:04:19;5.80;91.20
33988;DHT22;37428;53.580;-1.666;2024-01-06T15:07:23;5.80;91.20
33988;DHT22;37428;53.580;-1.666;2024-01-06T15:10:25;5.80;91.70
33988;DHT22;37428;53.580;-1.666;2024-01-06T15:13:29;5.80;91.40
33988;DHT22;37428;53.580;-1.666;2024-01-06T15:16:32;5.80;91.60
33988;DHT22;37428;53.580;-1.666;2024-01-06T15:19:34;5.80;91.60
33988;DHT22;37428;53.580;-1.666;2024-01-06T15:22:40;5.80;91.40
33988;DHT22;37428;53.580;-1.666;2024-01-06T15:25:42;5.80;91.50
33988;DHT22;37428;53.580;-1.666;2024-01-06T15:28:44;5.80;92.00
33988;DHT22;37428;53.580;-1.666;2024-01-06T15:31:46;5.70;92.30
33988;DHT22;37428;53.580;-1.666;2024-01-06T15:34:49;5.70;92.10
33988;DHT22;37428;53.580;-1.666;2024-01-06T15:37:52;5.70;92.30
33988;DHT22;37428;53.580;-1.666;2024-01-06T15:40:55;5.70;92.60
33988;DHT22;37428;53.580;-1.666;2024-01-06T15:43:57;5.70;93.30
33988;DHT22;37428;53.580;-1.666;2024-01-06T15:46:59;5.70;93.30
33988;DHT22;37428;53.580;-1.666;2024-01-06T15:50:02;5.70;92.80
33988;DHT22;37428;53.580;-1.666;2024-01-06T15:53:05;5.70;92.90
33988;DHT22;37428;53.580;-1.666;2024-01-06T15:56:08;5.70;93.60
33988;DHT22;37428;53.580;-1.666;2024-01-06T15:59:10;5.60;93.60
33988;DHT22;37428;53.580;-1.666;2024-01-06T16:02:12;5.60;94.00
33988;DHT22;37428;53.580;-1.666;2024-01-06T16:05:15;5.60;94.20
33988;DHT22;37428;53.580;-1.666;2024-01-06T16:08:19;5.60;94.30
33988;DHT22;37428;53.580;-1.666;2024-01-06T16:11:21;5.60;94.10
33988;DHT22;37428;53.580;-1.666;2024-01-06T16:14:23;5.60;94.10
33988;DHT22;37428;53.580;-1.666;2024-01-06T16:17:26;5.50;94.10
33988;DHT22;37428;53.580;-1.666;2024-01-06T16:20:28;5.50;94.00
33988;DHT22;37428;53.580;-1.666;2024-01-06T16:23:32;5.50;93.90
33988;DHT22;37428;53.580;-1.666;2024-01-06T16:26:34;5.40;94.30
33988;DHT22;37428;53.580;-1.666;2024-01-06T16:29:37;5.40;94.80
33988;DHT22;37428;53.580;-1.666;2024-01-06T16:32:39;5.40;94.70
33988;DHT22;37428;53.580;-1.666;2024-01-06T16:35:41;5.30;95.40
33988;DHT22;37428;53.580;-1.666;2024-01-06T16:38:48;5.30;95.50
33988;DHT22;37428;53.580;-1.666;2024-01-06T16:41:50;5.30;95.50
33988;DHT22;37428;53.580;-1.666;2024-01-06T16:44:53;5.30;95.70
33988;DHT22;37428;53.580;-1.666;2024-01-06T16:47:55;5.30;95.70
33988;DHT22;37428;53.580;-1.666;2024-01-06T16:50:57;5.30;96.00
33988;DHT22;37428;53.580;-1.666;2024-01-06T16:54:01;5.30;96.00
33988;DHT22;37428;53.580;-1.666;2024-01-06T16:57:03;5.30;96.10
33988;DHT22;37428;53.580;-1.666;2024-01-06T17:00:06;5.30;96.20
33988;DHT22;37428;53.580;-1.666;2024-01-06T17:03:10;5.20;96.30
33988;DHT22;37428;53.580;-1.666;2024-01-06T17:06:12;5.20;96.70
33988;DHT22;37428;53.580;-1.666;2024-01-06T17:09:16;5.20;96.90
33988;DHT22;37428;53.580;-1.666;2024-01-06T17:12:18;5.20;97.40
33988;DHT22;37428;53.580;-1.666;2024-01-06T17:15:21;5.20;97.90
33988;DHT22;37428;53.580;-1.666;2024-01-06T17:18:27;5.10;98.40
33988;DHT22;37428;53.580;-1.666;2024-01-06T17:21:29;5.10;98.40
33988;DHT22;37428;53.580;-1.666;2024-01-06T17:24:33;5.00;98.60
33988;DHT22;37428;53.580;-1.666;2024-01-06T17:27:36;4.90;99.20
33988;DHT22;37428;53.580;-1.666;2024-01-06T17:30:39;4.90;99.30
33988;DHT22;37428;53.580;-1.666;2024-01-06T17:33:41;4.80;99.50
33988;DHT22;37428;53.580;-1.666;2024-01-06T17:36:43;4.80;99.40
33988;DHT22;37428;53.580;-1.666;2024-01-06T17:39:47;4.70;99.10
33988;DHT22;37428;53.580;-1.666;2024-01-06T17:42:49;4.60;99.40
33988;DHT22;37428;53.580;-1.666;2024-01-06T17:45:51;4.50;99.90
33988;DHT22;37428;53.580;-1.666;2024-01-06T17:48:54;4.60;99.90
33988;DHT22;37428;53.580;-1.666;2024-01-06T17:51:56;4.50;99.90
33988;DHT22;37428;53.580;-1.666;2024-01-06T17:55:00;4.50;99.90
33988;DHT22;37428;53.580;-1.666;2024-01-06T17:58:03;4.60;99.90
33988;DHT22;37428;53.580;-1.666;2024-01-06T18:01:05;4.50;99.90
33988;DHT22;37428;53.580;-1.666;2024-01-06T18:04:08;4.50;99.90
33988;DHT22;37428;53.580;-1.666;2024-01-06T18:07:10;4.40;99.80
33988;DHT22;37428;53.580;-1.666;2024-01-06T18:10:14;4.40;99.90
33988;DHT22;37428;53.580;-1.666;2024-01-06T18:13:16;4.40;99.90
33988;DHT22;37428;53.580;-1.666;2024-01-06T18:16:19;4.30;99.90
33988;DHT22;37428;53.580;-1.666;2024-01-06T18:19:21;4.40;99.90
33988;DHT22;37428;53.580;-1.666;2024-01-06T18:22:23;4.40;99.90
33988;DHT22;37428;53.580;-1.666;2024-01-06T18:25:37;4.50;99.90
33988;DHT22;37428;53.580;-1.666;2024-01-06T18:28:39;4.50;99.90
33988;DHT22;37428;53.580;-1.666;2024-01-06T18:31:41;4.40;99.90
33988;DHT22;37428;53.580;-1.666;2024-01-06T18:34:44;4.40;99.90
33988;DHT22;37428;53.580;-1.666;2024-01-06T18:37:46;4.40;99.90
33988;DHT22;37428;53.580;-1.666;2024-01-06T18:40:50;4.30;99.90
33988;DHT22;37428;53.580;-1.666;2024-01-06T18:43:52;4.20;99.90
33988;DHT22;37428;53.580;-1.666;2024-01-06T18:46:55;4.20;99.90
33988;DHT22;37428;53.580;-1.666;2024-01-06T18:49:57;4.20;99.90
33988;DHT22;37428;53.580;-1.666;2024-01-06T18:53:00;4.20;99.90
33988;DHT22;37428;53.580;-1.666;2024-01-06T18:56:04;4.20;99.90
33988;DHT22;37428;53.580;-1.666;2024-01-06T18:59:06;4.20;99.90
33988;DHT22;37428;53.580;-1.666;2024-01-06T19:02:10;4.20;99.90
33988;DHT22;37428;53.580;-1.666;2024-01-06T19:05:13;4.20;99.90
33988;DHT22;37428;53.580;-1.666;2024-01-06T19:08:15;4.30;99.90
33988;DHT22;37428;53.580;-1.666;2024-01-06T19:11:19;4.20;99.90
33988;DHT22;37428;53.580;-1.666;2024-01-06T19:14:21;4.30;99.90
33988;DHT22;37428;53.580;-1.666;2024-01-06T19:17:23;4.30;99.90